Cameron, North Carolina
Current Conditions -  °F | °C
As of 3:55 PM on Friday 19 Dec 2014 (Local Time) from KSOP Reporting Station
Clear Clear  
Wind Chill: 54°   Ceiling: Unl
Heat Index: 54°   Visibility: 10mi
Dew Point: 21°   Wind: 0mph
Humidity: 28%   Direction: NA
Pressure: 30.11"   Gusts: NA
Location:  35.33°N, 79.26°W
Report Text: KSOP 192055Z AUTO 00000KT 10SM CLR 12/M06 A3011 RMK AO1 57003
Loading
Personal Weather Stations






























Interactive Weather Map New forecast layout! Learn more

10-Day Weather Forecast

Advertisements
Track Severe Weather on mobile